Terminal Aerodrome Forecast
Issued by NWS

Home | Current Version | Previous Version | Text Only | Print | Product List | Glossary On
Versions: 1 2 3 4 5 6 7 8 9 10 11 12 13 14 15 16 17 18 19 20 21 22 23 24 25 26 27 28 29 30 31 32 33 34 35 36 37
000
FTUS44 KOHX 231825 AAA
TAFCKV
TAF AMD
KCKV 231825Z 2318/2418 02013KT 6SM -SHRA BR VCTS OVC015CB
      TEMPO 2318/2322 2SM -SHRA BR OVC008
     FM240400 36011KT 6SM BR VCSH OVC025
     FM241000 36008KT 6SM BR OVC011=

USA.gov is the U.S. government's official web portal to all federal, state and local government web resources and services.